Time;durP1;ratioP1;P1;durP2;ratioP2;P2;SDS_P1;SDS_P2;PMS_P1;PMS_P2;Temp;Humidity;BMP_temperature;BMP_pressure;BME280_temperature;BME280_humidity;BME280_pressure;Samples;Min_cycle;Max_cycle;Signal;HPM_P1;HPM_P2
2023/02/12 00:02:14;;;;;;;0.60;0.60;;;20.20;68.20;;;;;;6215393;23;20011;-69
2023/02/12 00:04:40;;;;;;;1.17;0.80;;;20.10;68.30;;;;;;6188513;23;20071;-69
2023/02/12 00:07:06;;;;;;;0.70;0.70;;;20.10;68.40;;;;;;6214920;23;19996;-69
2023/02/12 00:09:31;;;;;;;0.93;0.60;;;20.10;68.50;;;;;;6215181;23;20001;-69
2023/02/12 00:11:57;;;;;;;0.70;0.70;;;20.10;68.60;;;;;;6213190;23;20088;-69
2023/02/12 00:14:23;;;;;;;0.60;0.60;;;20.00;68.70;;;;;;6213591;23;20068;-69
2023/02/12 00:16:48;;;;;;;1.67;0.45;;;20.00;68.80;;;;;;6214812;23;20005;-69
2023/02/12 00:19:14;;;;;;;1.17;0.50;;;19.90;68.80;;;;;;6214981;23;20000;-69
2023/02/12 00:21:40;;;;;;;0.88;0.77;;;19.90;68.90;;;;;;6213449;23;20001;-69
2023/02/12 00:24:05;;;;;;;0.70;0.70;;;19.90;68.90;;;;;;6213334;23;20005;-69
2023/02/12 00:26:31;;;;;;;0.68;0.68;;;19.80;68.90;;;;;;6214866;23;20004;-69
2023/02/12 00:28:56;;;;;;;0.85;0.73;;;19.80;68.90;;;;;;6213042;23;20209;-69
2023/02/12 00:31:24;;;;;;;0.70;0.70;;;19.70;68.90;;;;;;6213468;23;20008;-69
2023/02/12 00:33:49;;;;;;;0.60;0.55;;;19.70;69.00;;;;;;6213419;23;20463;-69
2023/02/12 00:36:20;;;;;;;0.70;0.70;;;19.70;69.00;;;;;;6214320;23;20001;-69
2023/02/12 00:38:46;;;;;;;0.70;0.60;;;19.70;69.10;;;;;;6190513;23;20484;-69
2023/02/12 00:41:11;;;;;;;0.50;0.50;;;19.60;69.10;;;;;;6190062;23;19997;-69
2023/02/12 00:43:37;;;;;;;0.60;0.60;;;19.60;69.10;;;;;;6216942;23;20050;-69
2023/02/12 00:46:04;;;;;;;0.70;0.70;;;19.60;69.20;;;;;;6214989;23;20055;-69
2023/02/12 00:48:30;;;;;;;0.57;0.57;;;19.50;70.30;;;;;;6215063;23;20001;-70
2023/02/12 00:50:55;;;;;;;0.95;0.70;;;19.50;69.30;;;;;;6215273;23;20007;-70
2023/02/12 00:53:21;;;;;;;0.60;0.60;;;19.50;69.40;;;;;;6215074;23;20079;-69
2023/02/12 00:55:46;;;;;;;2.38;0.85;;;19.40;69.50;;;;;;6216156;23;20090;-69
2023/02/12 00:58:12;;;;;;;0.65;0.60;;;19.40;69.60;;;;;;6215144;23;20004;-69
2023/02/12 01:00:38;;;;;;;1.08;0.80;;;19.40;69.70;;;;;;6215354;23;20000;-69
2023/02/12 01:03:04;;;;;;;1.15;0.88;;;19.40;69.90;;;;;;6214927;23;20004;-70
2023/02/12 01:05:30;;;;;;;1.05;0.70;;;19.30;69.90;;;;;;6215170;23;20016;-69
2023/02/12 01:07:55;;;;;;;0.63;0.63;;;19.30;70.00;;;;;;6214817;23;20341;-69
2023/02/12 01:10:21;;;;;;;0.60;0.60;;;19.30;70.20;;;;;;6190041;23;20004;-69
2023/02/12 01:12:47;;;;;;;0.65;0.65;;;19.30;70.30;;;;;;6190114;23;20011;-70
2023/02/12 01:15:13;;;;;;;1.27;0.65;;;19.30;70.30;;;;;;6214707;23;20011;-69
2023/02/12 01:17:39;;;;;;;2.78;0.93;;;19.20;70.40;;;;;;6214966;23;19996;-70
2023/02/12 01:20:06;;;;;;;0.77;0.77;;;19.20;70.50;;;;;;6216368;23;20050;-70
2023/02/12 01:22:33;;;;;;;0.77;0.70;;;19.20;70.50;;;;;;6214485;23;20333;-69
2023/02/12 01:24:59;;;;;;;1.40;0.70;;;19.10;70.50;;;;;;6216213;23;20020;-70
2023/02/12 01:27:25;;;;;;;0.75;0.75;;;19.10;70.60;;;;;;6215909;23;20075;-70
2023/02/12 01:29:50;;;;;;;0.93;0.85;;;19.10;70.60;;;;;;6216083;23;20059;-69
2023/02/12 01:32:16;;;;;;;1.23;0.75;;;19.10;70.70;;;;;;6214771;23;20059;-70
2023/02/12 01:34:41;;;;;;;1.50;1.13;;;19.10;70.70;;;;;;6214732;23;20040;-69
2023/02/12 01:37:07;;;;;;;0.73;0.73;;;19.00;70.80;;;;;;6215794;23;20004;-69
2023/02/12 01:39:34;;;;;;;0.73;0.70;;;19.00;70.90;;;;;;6190035;23;20437;-69
2023/02/12 01:42:00;;;;;;;0.70;0.70;;;19.00;70.90;;;;;;6214507;23;20001;-70
2023/02/12 01:44:28;;;;;;;1.20;0.90;;;19.00;71.10;;;;;;6214694;23;20028;-69
2023/02/12 01:47:01;;;;;;;0.70;0.70;;;18.90;71.10;;;;;;6189487;23;20011;-69
2023/02/12 01:49:30;;;;;;;1.13;0.75;;;18.90;71.10;;;;;;6214650;23;20033;-69
2023/02/12 01:52:16;;;;;;;1.40;0.82;;;18.90;71.20;;;;;;6189695;23;20001;-69
2023/02/12 01:54:42;;;;;;;0.85;0.60;;;18.90;71.40;;;;;;6214311;23;20005;-69
2023/02/12 01:57:08;;;;;;;0.93;0.80;;;18.90;71.60;;;;;;6214181;23;20001;-70
2023/02/12 01:59:34;;;;;;;3.13;0.82;;;18.80;71.50;;;;;;6189783;23;20027;-70
2023/02/12 02:02:00;;;;;;;0.75;0.75;;;18.80;71.50;;;;;;6189360;23;20000;-69
2023/02/12 02:04:31;;;;;;;1.85;0.93;;;18.80;71.70;;;;;;6216120;23;20321;-69
2023/02/12 02:07:01;;;;;;;0.98;0.80;;;18.80;71.60;;;;;;6214192;23;20023;-69
2023/02/12 02:09:28;;;;;;;0.85;0.75;;;18.80;71.60;;;;;;6189443;23;20071;-69
2023/02/12 02:14:38;;;;;;;0.65;0.65;;;18.70;71.80;;;;;;6214453;23;20063;-69
2023/02/12 02:17:27;;;;;;;1.05;0.82;;;18.70;71.70;;;;;;6189182;23;20068;-69
2023/02/12 02:20:23;;;;;;;1.05;0.80;;;18.70;71.80;;;;;;6094155;23;20367;-69
2023/02/12 02:23:16;;;;;;;0.98;0.68;;;18.70;71.80;;;;;;6094266;23;20011;-69
2023/02/12 02:25:50;;;;;;;0.70;0.70;;;18.60;71.80;;;;;;6094418;23;20010;-69
2023/02/12 02:29:00;;;;;;;2.53;0.85;;;18.60;71.90;;;;;;6094525;23;20093;-69
2023/02/12 02:31:43;;;;;;;0.73;0.73;;;18.60;72.20;;;;;;6036733;23;20014;-69
2023/02/12 02:34:20;;;;;;;2.05;1.10;;;18.60;71.90;;;;;;6012283;23;20004;-70
2023/02/12 02:36:46;;;;;;;2.92;0.70;;;18.60;72.00;;;;;;6036220;23;20054;-69
2023/02/12 02:39:26;;;;;;;1.20;1.10;;;18.50;72.00;;;;;;6036427;23;20012;-70
2023/02/12 02:41:59;;;;;;;1.42;0.98;;;18.50;73.20;;;;;;6014604;23;20008;-69
2023/02/12 02:44:51;;;;;;;1.33;0.98;;;18.50;72.10;;;;;;6012573;23;20038;-69
2023/02/12 02:47:18;;;;;;;1.33;0.98;;;18.50;72.10;;;;;;6012763;23;20094;-69
2023/02/12 02:49:52;;;;;;;1.10;1.00;;;18.50;72.20;;;;;;6012569;23;20035;-69
2023/02/12 02:52:21;;;;;;;0.95;0.93;;;18.40;72.10;;;;;;6012882;23;20007;-69
2023/02/12 02:54:53;;;;;;;0.82;0.70;;;18.40;72.20;;;;;;6012621;23;20039;-69
2023/02/12 02:57:58;;;;;;;1.60;0.90;;;18.40;72.20;;;;;;6030648;23;20003;-69
2023/02/12 03:00:44;;;;;;;1.08;0.75;;;18.40;72.20;;;;;;6040353;23;20456;-69
2023/02/12 03:03:35;;;;;;;1.00;1.00;;;18.30;72.20;;;;;;6041615;23;20027;-69
2023/02/12 03:06:10;;;;;;;3.22;0.90;;;18.30;72.30;;;;;;6064563;23;20038;-69
2023/02/12 03:08:38;;;;;;;0.80;0.80;;;18.30;72.30;;;;;;6126095;23;20009;-69
2023/02/12 03:11:14;;;;;;;0.80;0.80;;;18.30;72.30;;;;;;6188519;23;20024;-69
2023/02/12 03:13:48;;;;;;;0.98;0.90;;;18.20;72.30;;;;;;6189893;23;20067;-69
2023/02/12 03:16:23;;;;;;;1.83;0.93;;;18.20;72.40;;;;;;6188988;23;20468;-69
2023/02/12 03:19:00;;;;;;;1.40;1.00;;;18.20;72.50;;;;;;6188243;23;20530;-69
2023/02/12 03:21:48;;;;;;;1.00;0.90;;;18.20;72.70;;;;;;6189752;23;20345;-69
2023/02/12 03:24:32;;;;;;;2.75;0.90;;;18.20;72.50;;;;;;6213403;23;20028;-69
2023/02/12 03:27:03;;;;;;;1.45;0.70;;;18.20;72.50;;;;;;6214372;23;20004;-69
2023/02/12 03:29:29;;;;;;;1.90;0.95;;;18.10;73.60;;;;;;6189249;23;20014;-69
2023/02/12 03:32:18;;;;;;;0.90;0.90;;;18.10;72.50;;;;;;6187821;23;20064;-69
2023/02/12 03:34:52;;;;;;;0.80;0.77;;;18.10;72.50;;;;;;6212872;23;20386;-69
2023/02/12 03:37:33;;;;;;;2.10;0.77;;;18.10;72.70;;;;;;6213112;23;20072;-70
2023/02/12 03:40:15;;;;;;;0.85;0.85;;;18.10;72.60;;;;;;6190663;23;19997;-69
2023/02/12 03:42:46;;;;;;;0.87;0.73;;;18.10;72.70;;;;;;6213030;23;20005;-69
2023/02/12 03:45:33;;;;;;;0.90;0.90;;;18.00;72.70;;;;;;6212893;23;20011;-69
2023/02/12 03:48:17;;;;;;;0.70;0.70;;;18.00;72.70;;;;;;6214126;23;20004;-69
2023/02/12 03:51:17;;;;;;;0.90;0.90;;;18.00;72.70;;;;;;6213430;23;20008;-69
2023/02/12 03:53:43;;;;;;;1.75;0.90;;;18.00;72.80;;;;;;6213161;23;20000;-69
2023/02/12 03:56:14;;;;;;;0.80;0.80;;;18.00;72.80;;;;;;6214206;23;20055;-69
2023/02/12 03:58:40;;;;;;;0.90;0.90;;;17.90;72.80;;;;;;6212935;23;20062;-69
2023/02/12 04:01:06;;;;;;;1.48;0.95;;;17.90;72.90;;;;;;6187917;23;20306;-70
2023/02/12 04:03:31;;;;;;;2.30;0.93;;;17.90;72.90;;;;;;6212778;23;20046;-69
2023/02/12 04:05:57;;;;;;;0.82;0.82;;;17.90;73.00;;;;;;6188041;23;20032;-69
2023/02/12 04:08:23;;;;;;;0.90;0.90;;;17.90;73.00;;;;;;6212956;23;20095;-69
2023/02/12 04:11:07;;;;;;;1.00;1.00;;;17.90;73.10;;;;;;6213479;23;20004;-69
2023/02/12 04:13:44;;;;;;;0.73;0.73;;;17.90;73.20;;;;;;6216522;23;20005;-69
2023/02/12 04:16:28;;;;;;;2.10;0.90;;;17.80;73.30;;;;;;6216279;23;20515;-69
2023/02/12 04:18:54;;;;;;;0.93;0.93;;;17.80;73.60;;;;;;6192312;23;20011;-69
2023/02/12 04:21:53;;;;;;;0.95;0.95;;;17.80;73.60;;;;;;6216086;23;20075;-69
2023/02/12 04:24:45;;;;;;;1.00;0.90;;;17.80;73.50;;;;;;6214754;23;20076;-69
2023/02/12 04:27:33;;;;;;;0.80;0.80;;;17.80;73.60;;;;;;6094803;23;20025;-69
2023/02/12 04:30:06;;;;;;;1.75;1.08;;;17.80;73.60;;;;;;6073980;23;20002;-69
2023/02/12 04:32:33;;;;;;;;;;;17.80;73.70;;;;;;6071083;23;20542;-70
2023/02/12 04:35:23;;;;;;;1.20;1.10;;;17.70;73.70;;;;;;6095166;23;19983;-69
2023/02/12 04:38:08;;;;;;;0.93;0.93;;;17.70;73.80;;;;;;6095153;23;20007;-69
2023/02/12 04:40:33;;;;;;;1.30;1.02;;;17.70;73.90;;;;;;6094899;23;20033;-69
2023/02/12 04:42:59;;;;;;;1.40;1.05;;;17.70;74.00;;;;;;6071290;23;20002;-69
2023/02/12 04:45:27;;;;;;;0.90;0.90;;;17.70;75.00;;;;;;6070885;23;20384;-70
2023/02/12 04:47:52;;;;;;;1.00;0.90;;;17.70;74.00;;;;;;6071393;23;20463;-69
2023/02/12 04:50:18;;;;;;;1.00;0.90;;;17.70;74.10;;;;;;6046830;23;20010;-69
2023/02/12 04:52:44;;;;;;;1.27;1.17;;;17.70;74.40;;;;;;6071055;23;20113;-70
2023/02/12 04:55:09;;;;;;;0.95;0.90;;;17.70;74.40;;;;;;6070720;23;20078;-69
2023/02/12 04:57:35;;;;;;;1.10;1.00;;;17.60;74.30;;;;;;6070986;23;20007;-69
2023/02/12 05:00:01;;;;;;;1.00;0.90;;;17.60;74.30;;;;;;6070706;23;20006;-69
2023/02/12 05:02:27;;;;;;;1.00;0.95;;;17.60;74.30;;;;;;6070631;23;20010;-70
2023/02/12 05:04:52;;;;;;;1.25;1.00;;;17.60;74.30;;;;;;6183923;23;20087;-69
2023/02/12 05:07:18;;;;;;;1.25;0.80;;;17.60;74.30;;;;;;6215751;23;20136;-69
2023/02/12 05:09:43;;;;;;;0.80;0.80;;;17.60;74.40;;;;;;6215882;23;20365;-69
2023/02/12 05:12:09;;;;;;;1.10;0.95;;;17.60;74.40;;;;;;6214513;23;19997;-69
2023/02/12 05:14:35;;;;;;;0.90;0.90;;;17.60;74.40;;;;;;6215483;23;20319;-69
2023/02/12 05:17:00;;;;;;;1.02;0.93;;;17.60;74.50;;;;;;6214227;23;20012;-69
2023/02/12 05:19:26;;;;;;;1.05;1.00;;;17.50;74.40;;;;;;6189328;23;20072;-69
2023/02/12 05:21:52;;;;;;;1.08;0.98;;;17.50;74.40;;;;;;6215389;23;20003;-69
2023/02/12 05:24:17;;;;;;;1.10;1.00;;;17.50;74.50;;;;;;6214108;23;20024;-69
2023/02/12 05:26:43;;;;;;;0.80;0.80;;;17.50;74.40;;;;;;6214245;23;20004;-69
2023/02/12 05:29:08;;;;;;;1.00;1.00;;;17.50;74.40;;;;;;6213743;23;20106;-69
2023/02/12 05:31:34;;;;;;;1.02;1.00;;;17.50;74.50;;;;;;6214320;23;20007;-69
2023/02/12 05:34:00;;;;;;;1.10;1.00;;;17.50;74.60;;;;;;6189116;23;20004;-70
2023/02/12 05:36:25;;;;;;;0.90;0.90;;;17.50;74.60;;;;;;6215425;23;20009;-69
2023/02/12 05:38:51;;;;;;;0.82;0.82;;;17.40;74.60;;;;;;6215820;23;20004;-69
2023/02/12 05:41:19;;;;;;;1.02;0.98;;;17.50;74.70;;;;;;6189001;23;20378;-69
2023/02/12 05:43:45;;;;;;;1.27;1.00;;;17.40;74.70;;;;;;6215349;23;20000;-69
2023/02/12 05:46:11;;;;;;;2.03;1.10;;;17.40;75.00;;;;;;6189266;23;20008;-69
2023/02/12 05:48:36;;;;;;;1.30;0.85;;;17.40;74.80;;;;;;6189241;23;20005;-69
2023/02/12 05:51:07;;;;;;;2.42;1.15;;;17.40;74.90;;;;;;6189172;23;20067;-69
2023/02/12 05:53:33;;;;;;;0.82;0.82;;;17.40;74.80;;;;;;6189034;23;20000;-69
2023/02/12 05:56:25;;;;;;;1.90;1.23;;;17.30;74.80;;;;;;6215384;23;20059;-69
2023/02/12 05:58:53;;;;;;;1.08;1.02;;;17.40;74.80;;;;;;6207869;23;20059;-69
2023/02/12 06:01:21;;;;;;;1.10;1.00;;;17.30;74.80;;;;;;6213836;23;20062;-69
2023/02/12 06:03:46;;;;;;;1.13;1.02;;;17.30;74.80;;;;;;6189349;23;19997;-69
2023/02/12 06:06:12;;;;;;;0.95;0.95;;;17.30;74.90;;;;;;6213794;23;20011;-69
2023/02/12 06:08:38;;;;;;;1.00;1.00;;;17.30;75.00;;;;;;6213758;23;20393;-69
2023/02/12 06:11:05;;;;;;;0.95;0.95;;;17.20;74.90;;;;;;6213970;23;20007;-69
2023/02/12 06:13:31;;;;;;;1.20;1.10;;;17.30;74.90;;;;;;6213349;23;20005;-69
2023/02/12 06:15:57;;;;;;;1.20;0.90;;;17.20;74.90;;;;;;6213794;23;20042;-69
2023/02/12 06:18:23;;;;;;;1.60;1.10;;;17.20;75.00;;;;;;6215100;23;19997;-69
2023/02/12 06:20:48;;;;;;;1.00;1.00;;;17.20;75.10;;;;;;6188833;23;20005;-69
2023/02/12 06:23:14;;;;;;;0.93;0.93;;;17.20;75.20;;;;;;6213551;23;20075;-69
2023/02/12 06:25:40;;;;;;;1.10;1.00;;;17.20;75.30;;;;;;6213923;23;20078;-69
2023/02/12 06:28:06;;;;;;;0.90;0.90;;;17.20;75.20;;;;;;6213224;23;20017;-69
2023/02/12 06:30:33;;;;;;;0.88;0.88;;;17.20;75.10;;;;;;6213369;23;20012;-69
2023/02/12 06:32:59;;;;;;;1.08;1.00;;;17.20;75.20;;;;;;6213743;23;20067;-69
2023/02/12 06:35:24;;;;;;;3.72;1.00;;;17.20;75.20;;;;;;6214758;23;20004;-69
2023/02/12 06:37:50;;;;;;;1.00;1.00;;;17.20;75.10;;;;;;6213607;23;20000;-69
2023/02/12 06:40:16;;;;;;;2.05;1.08;;;17.20;75.10;;;;;;6214866;23;20051;-69
2023/02/12 06:42:41;;;;;;;1.08;1.00;;;17.10;75.20;;;;;;6213129;23;20058;-69
2023/02/12 06:45:07;;;;;;;1.00;1.00;;;17.10;75.10;;;;;;6214890;23;20001;-69
2023/02/12 06:47:33;;;;;;;1.23;1.23;;;17.10;75.10;;;;;;6214856;23;20005;-69
2023/02/12 06:49:59;;;;;;;1.13;1.02;;;17.10;75.10;;;;;;6188295;23;20049;-69
2023/02/12 06:52:24;;;;;;;1.10;1.00;;;17.10;75.30;;;;;;6213183;23;20197;-69
2023/02/12 06:54:50;;;;;;;1.05;0.90;;;17.10;75.40;;;;;;6213553;23;20001;-69
2023/02/12 06:57:15;;;;;;;0.80;0.80;;;17.10;75.40;;;;;;6212930;23;19996;-69
2023/02/12 06:59:41;;;;;;;1.20;1.10;;;17.10;75.50;;;;;;6214655;23;20429;-69
2023/02/12 07:02:09;;;;;;;0.93;0.93;;;17.10;75.40;;;;;;6214957;23;19997;-69
2023/02/12 07:04:36;;;;;;;1.63;1.10;;;17.10;75.50;;;;;;6213266;23;20001;-69
2023/02/12 07:07:03;;;;;;;2.22;0.90;;;17.10;75.40;;;;;;6188635;23;20000;-69
2023/02/12 07:09:29;;;;;;;2.58;1.10;;;17.10;75.40;;;;;;6213024;23;20031;-69
2023/02/12 07:11:55;;;;;;;2.50;1.17;;;17.10;75.50;;;;;;6214393;23;20450;-69
2023/02/12 07:14:21;;;;;;;1.77;1.35;;;17.00;75.40;;;;;;6213236;23;20027;-69
2023/02/12 07:16:46;;;;;;;1.27;1.13;;;17.00;75.40;;;;;;6214618;23;20004;-69
2023/02/12 07:19:12;;;;;;;0.98;0.98;;;17.00;75.50;;;;;;6214589;23;20071;-69
2023/02/12 07:21:38;;;;;;;0.95;0.95;;;17.00;75.40;;;;;;6213050;23;19997;-69
2023/02/12 07:24:04;;;;;;;1.17;0.90;;;17.00;75.60;;;;;;6213132;23;20007;-69
2023/02/12 07:26:29;;;;;;;3.00;1.05;;;17.00;75.50;;;;;;6212846;23;20005;-69
2023/02/12 07:28:56;;;;;;;1.15;0.82;;;17.00;75.60;;;;;;6213057;23;20019;-70
2023/02/12 07:31:22;;;;;;;1.10;1.00;;;17.00;75.60;;;;;;6213115;23;20005;-69
2023/02/12 07:33:48;;;;;;;1.30;1.20;;;17.00;75.60;;;;;;6188119;23;20004;-69
2023/02/12 07:36:17;;;;;;;1.10;1.05;;;17.00;75.60;;;;;;6213228;23;20079;-69
2023/02/12 07:38:43;;;;;;;1.15;1.00;;;17.00;75.60;;;;;;6187657;23;20367;-69
2023/02/12 07:41:14;;;;;;;1.40;1.17;;;17.00;76.60;;;;;;6187402;23;20004;-69
2023/02/12 07:43:44;;;;;;;0.82;0.82;;;17.00;76.50;;;;;;6212930;23;20007;-69
2023/02/12 07:46:10;;;;;;;0.90;0.90;;;17.00;75.60;;;;;;6190322;23;20012;-69
2023/02/12 07:48:36;;;;;;;0.82;0.82;;;17.00;75.60;;;;;;6216312;23;20023;-69
2023/02/12 07:51:03;;;;;;;1.02;1.02;;;16.90;75.70;;;;;;6218036;23;20345;-69
2023/02/12 07:53:29;;;;;;;1.23;1.13;;;16.90;75.50;;;;;;6217696;23;20008;-69
2023/02/12 07:55:55;;;;;;;1.15;1.10;;;16.90;75.50;;;;;;6215862;23;20440;-69
2023/02/12 07:58:20;;;;;;;2.25;0.85;;;16.90;75.50;;;;;;6217820;23;20047;-69
2023/02/12 08:00:46;;;;;;;1.00;1.00;;;16.90;75.50;;;;;;6217748;23;20437;-69
2023/02/12 08:03:11;;;;;;;1.02;0.93;;;16.90;75.60;;;;;;6216257;23;20071;-69
2023/02/12 08:05:37;;;;;;;1.40;1.10;;;16.90;75.70;;;;;;6216100;23;20016;-69
2023/02/12 08:08:03;;;;;;;1.17;0.95;;;16.90;75.60;;;;;;6217679;23;20031;-69
2023/02/12 08:10:28;;;;;;;1.20;1.10;;;16.90;75.60;;;;;;6217386;23;20348;-69
2023/02/12 08:12:54;;;;;;;1.10;1.00;;;16.90;75.60;;;;;;6217934;23;20009;-69
2023/02/12 08:15:20;;;;;;;0.70;0.70;;;16.80;75.60;;;;;;6216127;23;20340;-69
2023/02/12 08:17:45;;;;;;;1.48;1.20;;;16.80;75.50;;;;;;6216238;23;20444;-69
2023/02/12 08:20:11;;;;;;;1.77;1.00;;;16.80;75.60;;;;;;6217807;23;20008;-69
2023/02/12 08:22:37;;;;;;;1.25;1.10;;;16.80;75.60;;;;;;6216156;23;20429;-69
2023/02/12 08:25:03;;;;;;;1.75;1.20;;;16.80;75.50;;;;;;6217646;23;20119;-69
2023/02/12 08:27:28;;;;;;;2.15;0.90;;;16.80;75.60;;;;;;6217479;23;20092;-69
2023/02/12 08:29:54;;;;;;;1.00;0.90;;;16.80;75.60;;;;;;6217541;23;19996;-69
2023/02/12 08:32:19;;;;;;;1.00;1.00;;;16.80;75.60;;;;;;6216272;23;19997;-69
2023/02/12 08:34:45;;;;;;;1.08;1.08;;;16.80;75.60;;;;;;6217458;23;20058;-69
2023/02/12 08:37:11;;;;;;;1.08;1.08;;;16.70;75.60;;;;;;6216294;23;20028;-69
2023/02/12 08:39:37;;;;;;;0.90;0.90;;;16.80;75.60;;;;;;6215898;23;20061;-69
2023/02/12 08:42:03;;;;;;;1.73;0.90;;;16.80;75.70;;;;;;6216085;23;20036;-69
2023/02/12 08:44:28;;;;;;;1.30;1.20;;;16.70;75.60;;;;;;6216081;23;20437;-69
2023/02/12 08:46:54;;;;;;;0.93;0.93;;;16.80;75.70;;;;;;6216271;23;20004;-69
2023/02/12 08:49:22;;;;;;;0.90;0.90;;;16.80;75.70;;;;;;6191082;23;20031;-69
2023/02/12 08:51:49;;;;;;;1.00;0.90;;;16.70;75.60;;;;;;6216051;23;20004;-69
2023/02/12 08:54:17;;;;;;;1.00;0.88;;;16.70;75.60;;;;;;6216145;23;20000;-69
2023/02/12 08:56:44;;;;;;;2.10;1.08;;;16.70;75.60;;;;;;6215585;23;20005;-70
2023/02/12 08:59:10;;;;;;;1.08;1.08;;;16.70;75.60;;;;;;6214434;23;20011;-69
2023/02/12 09:01:42;;;;;;;1.00;1.00;;;16.70;75.50;;;;;;6189785;23;20024;-69
2023/02/12 09:04:14;;;;;;;3.28;1.00;;;16.70;75.30;;;;;;6190641;23;20381;-69
2023/02/12 09:06:39;;;;;;;1.60;1.30;;;16.70;75.20;;;;;;6189905;23;20005;-69
2023/02/12 09:09:06;;;;;;;1.25;1.13;;;16.70;75.40;;;;;;6215846;23;20008;-69
2023/02/12 09:11:32;;;;;;;1.60;1.13;;;16.70;75.40;;;;;;6215909;23;20396;-69
2023/02/12 09:14:00;;;;;;;1.00;1.00;;;16.70;75.50;;;;;;6214428;23;20429;-69
2023/02/12 09:16:27;;;;;;;0.90;0.90;;;16.70;75.50;;;;;;6214164;23;20043;-69
2023/02/12 09:18:53;;;;;;;2.00;1.17;;;16.70;75.40;;;;;;6214354;23;20487;-69
2023/02/12 09:21:19;;;;;;;1.58;1.20;;;16.70;75.50;;;;;;6189211;23;20009;-69
2023/02/12 09:23:45;;;;;;;1.33;1.23;;;16.70;75.50;;;;;;6215582;23;20332;-69
2023/02/12 09:26:13;;;;;;;1.13;1.13;;;16.60;75.50;;;;;;6164550;23;20011;-69
2023/02/12 09:28:39;;;;;;;1.05;1.02;;;16.60;75.50;;;;;;6214008;23;20017;-69
2023/02/12 09:31:12;;;;;;;2.67;1.10;;;16.60;75.50;;;;;;6214204;23;20004;-69
2023/02/12 09:33:37;;;;;;;;;;;16.60;75.50;;;;;;6191088;23;20001;-70
2023/02/12 09:36:05;;;;;;;1.70;1.60;;;16.60;74.50;;;;;;6215099;23;19962;-78
2023/02/12 09:38:31;;;;;;;3.55;1.65;;;16.60;73.10;;;;;;6214939;23;20000;-79
2023/02/12 09:41:04;;;;;;;1.88;1.75;;;16.70;73.10;;;;;;6189837;23;20001;-77
2023/02/12 09:43:42;;;;;;;1.67;1.58;;;16.90;72.70;;;;;;6214896;23;20381;-78
2023/02/12 09:46:11;;;;;;;1.70;1.60;;;16.90;72.40;;;;;;6215008;23;20001;-77
2023/02/12 09:48:54;;;;;;;1.42;1.33;;;17.00;71.70;;;;;;6189573;23;20009;-77
2023/02/12 09:51:19;;;;;;;1.75;1.65;;;17.10;71.50;;;;;;6214849;23;20059;-79
2023/02/12 09:53:46;;;;;;;1.77;1.67;;;17.10;71.40;;;;;;6189782;23;20384;-77
2023/02/12 09:56:12;;;;;;;1.90;1.80;;;17.20;71.00;;;;;;6190539;23;20004;-80
2023/02/12 09:58:50;;;;;;;2.00;1.90;;;17.20;70.90;;;;;;6214581;23;20004;-77
2023/02/12 10:01:17;;;;;;;2.60;1.75;;;17.30;70.80;;;;;;6190168;23;20001;-78
2023/02/12 10:03:44;;;;;;;1.63;1.52;;;17.30;70.40;;;;;;6216043;23;20035;-78
2023/02/12 10:06:15;;;;;;;1.73;1.63;;;17.40;70.20;;;;;;6164647;23;20472;-76
2023/02/12 10:08:54;;;;;;;2.25;1.50;;;17.40;70.00;;;;;;6214416;23;20009;-76
2023/02/12 10:12:11;;;;;;;2.00;1.90;;;17.50;69.90;;;;;;6214767;23;20004;-76
2023/02/12 10:14:42;;;;;;;1.70;1.60;;;17.50;69.60;;;;;;6070496;23;20017;-78
2023/02/12 10:17:13;;;;;;;1.80;1.70;;;17.50;69.50;;;;;;6095098;23;20069;-76
2023/02/12 10:20:00;;;;;;;2.05;1.90;;;17.50;69.40;;;;;;6070707;23;20006;-76
2023/02/12 10:22:56;;;;;;;1.73;1.63;;;17.60;69.20;;;;;;6094726;23;20343;-75
2023/02/12 10:25:55;;;;;;;2.22;1.63;;;17.60;69.00;;;;;;6094835;23;20010;-76
2023/02/12 10:28:25;;;;;;;2.28;2.08;;;17.70;68.80;;;;;;6083992;23;20022;-75
2023/02/12 10:31:06;;;;;;;1.95;1.85;;;17.70;68.50;;;;;;6070869;23;20010;-76
2023/02/12 10:33:48;;;;;;;1.98;1.80;;;17.70;68.40;;;;;;6070259;23;20030;-76
2023/02/12 10:36:25;;;;;;;1.83;1.73;;;17.80;68.10;;;;;;6070826;23;20082;-77
2023/02/12 10:38:54;;;;;;;1.92;1.83;;;17.80;68.00;;;;;;6072578;23;20035;-77
2023/02/12 10:41:19;;;;;;;1.88;1.77;;;17.80;67.90;;;;;;6071315;23;20034;-75
2023/02/12 10:43:45;;;;;;;2.40;1.60;;;17.90;67.80;;;;;;6070665;23;20471;-76
2023/02/12 10:46:14;;;;;;;1.67;1.58;;;17.90;67.70;;;;;;6070603;23;20006;-75
2023/02/12 10:48:40;;;;;;;2.00;1.90;;;17.90;67.50;;;;;;6070487;23;20481;-76
2023/02/12 10:51:06;;;;;;;1.80;1.70;;;18.00;67.60;;;;;;6189320;23;20012;-75
2023/02/12 10:53:42;;;;;;;2.30;1.70;;;18.00;67.50;;;;;;6215907;23;20004;-73
2023/02/12 10:56:11;;;;;;;2.08;1.98;;;18.00;67.30;;;;;;6214017;23;20425;-73
2023/02/12 10:58:41;;;;;;;1.90;1.80;;;18.00;67.10;;;;;;6215501;23;20074;-73
2023/02/12 11:01:21;;;;;;;2.03;1.92;;;18.10;66.90;;;;;;6189317;23;20414;-73
2023/02/12 11:03:46;;;;;;;1.73;1.63;;;18.10;66.70;;;;;;6189845;23;20051;-73
2023/02/12 11:06:14;;;;;;;1.80;1.70;;;18.10;66.80;;;;;;6215660;23;20008;-73
2023/02/12 11:08:40;;;;;;;1.90;1.77;;;18.20;66.60;;;;;;6213924;23;20451;-72
2023/02/12 11:11:20;;;;;;;1.70;1.60;;;18.20;66.50;;;;;;6213983;23;20036;-72
2023/02/12 11:13:57;;;;;;;2.05;1.95;;;18.20;66.50;;;;;;6190088;23;20077;-72
2023/02/12 11:16:33;;;;;;;2.13;2.00;;;18.20;66.50;;;;;;6191071;23;20012;-73
2023/02/12 11:19:04;;;;;;;2.25;1.90;;;18.20;66.50;;;;;;6190244;23;20004;-72
2023/02/12 11:21:30;;;;;;;1.83;1.70;;;18.30;66.40;;;;;;6188718;23;20078;-73
2023/02/12 11:23:55;;;;;;;1.83;1.65;;;18.30;66.20;;;;;;6188789;23;20000;-73
2023/02/12 11:26:27;;;;;;;1.95;1.80;;;18.30;66.20;;;;;;6188958;23;20016;-73
2023/02/12 11:28:53;;;;;;;1.63;1.52;;;18.30;66.10;;;;;;6188915;23;20020;-72
2023/02/12 11:31:22;;;;;;;1.75;1.65;;;18.30;66.10;;;;;;6213930;23;20025;-72
2023/02/12 11:34:03;;;;;;;2.15;1.77;;;18.30;66.00;;;;;;6213381;23;20001;-73
2023/02/12 11:36:30;;;;;;;1.95;1.85;;;18.30;66.00;;;;;;6191040;23;20009;-73
2023/02/12 11:38:56;;;;;;;1.70;1.60;;;18.30;66.00;;;;;;6189178;23;20433;-72
2023/02/12 11:41:38;;;;;;;1.65;1.55;;;18.30;65.80;;;;;;6188931;23;20005;-72
2023/02/12 11:44:11;;;;;;;1.80;1.70;;;18.40;66.10;;;;;;6213769;23;20042;-72
2023/02/12 11:46:36;;;;;;;2.00;1.90;;;18.40;65.50;;;;;;6188690;23;20008;-73
2023/02/12 11:49:02;;;;;;;1.88;1.77;;;18.40;65.70;;;;;;6188693;23;20004;-72
2023/02/12 11:51:28;;;;;;;2.00;1.80;;;18.40;65.60;;;;;;6188773;23;20009;-71
2023/02/12 11:53:56;;;;;;;1.60;1.50;;;18.50;65.70;;;;;;6213858;23;20001;-72
2023/02/12 11:56:21;;;;;;;1.70;1.60;;;18.50;66.60;;;;;;6188859;23;20000;-73
2023/02/12 11:58:48;;;;;;;1.60;1.50;;;18.50;65.50;;;;;;6215145;23;20007;-76
2023/02/12 12:01:21;;;;;;;1.50;1.40;;;18.50;65.60;;;;;;6213362;23;20084;-76
2023/02/12 12:04:03;;;;;;;1.60;1.50;;;18.50;65.40;;;;;;6213719;23;20004;-75
2023/02/12 12:06:36;;;;;;;1.58;1.48;;;18.50;65.60;;;;;;6213621;23;20005;-75
2023/02/12 12:09:05;;;;;;;2.65;1.60;;;18.40;65.40;;;;;;6213720;23;20151;-76
2023/02/12 12:12:23;;;;;;;1.70;1.60;;;18.40;65.50;;;;;;6188987;23;20310;-75
2023/02/12 12:20:56;;;;;;;1.55;1.45;;;18.50;65.50;;;;;;6036367;23;20050;-75
2023/02/12 12:23:34;;;;;;;1.58;1.48;;;18.50;65.50;;;;;;6036300;23;20456;-75
2023/02/12 12:26:12;;;;;;;1.70;1.60;;;18.50;65.60;;;;;;6012685;23;20514;-75
2023/02/12 12:28:59;;;;;;;1.48;1.38;;;18.50;65.50;;;;;;6034136;23;20034;-76
2023/02/12 12:31:39;;;;;;;1.70;1.55;;;18.50;65.40;;;;;;6036494;23;20014;-75
2023/02/12 12:34:09;;;;;;;1.70;1.60;;;18.50;65.50;;;;;;6037727;23;20336;-73
2023/02/12 12:36:54;;;;;;;1.63;1.50;;;18.50;65.40;;;;;;6038075;23;20007;-74
2023/02/12 12:39:37;;;;;;;1.25;1.17;;;18.50;65.20;;;;;;6037986;23;20011;-73
2023/02/12 12:42:27;;;;;;;1.60;1.50;;;18.60;65.30;;;;;;6038531;23;20004;-75
2023/02/12 12:44:53;;;;;;;1.55;1.45;;;18.50;65.20;;;;;;6037773;23;20007;-73
2023/02/12 12:47:40;;;;;;;1.70;1.60;;;18.50;65.30;;;;;;6038111;23;20086;-73
2023/02/12 12:50:11;;;;;;;1.58;1.48;;;18.50;65.00;;;;;;6039370;23;20015;-73
2023/02/12 12:53:11;;;;;;;1.50;1.40;;;18.50;65.00;;;;;;6202407;23;20004;-73
2023/02/12 12:55:45;;;;;;;1.70;1.60;;;18.60;65.10;;;;;;6216636;23;20006;-73
2023/02/12 12:58:27;;;;;;;1.48;1.38;;;18.60;64.90;;;;;;6216956;23;20008;-73
2023/02/12 13:01:14;;;;;;;1.48;1.38;;;18.70;65.10;;;;;;6215386;23;20369;-74
2023/02/12 13:04:25;;;;;;;1.60;1.50;;;18.70;65.00;;;;;;6216974;23;20005;-71
2023/02/12 13:07:13;;;;;;;1.52;1.42;;;18.70;64.90;;;;;;6105576;23;20010;-73
2023/02/12 13:10:07;;;;;;;1.70;1.60;;;18.70;64.80;;;;;;6124840;23;20073;-72
2023/02/12 13:12:57;;;;;;;1.48;1.38;;;18.60;64.80;;;;;;6124546;23;20077;-72
2023/02/12 13:15:25;;;;;;;1.58;1.48;;;18.60;65.00;;;;;;6124525;23;20420;-74
2023/02/12 13:18:03;;;;;;;1.45;1.35;;;18.60;65.00;;;;;;6124219;23;20002;-68